createdAt,value
2023-04-21T00:02:22.583Z,16.20
2023-04-21T00:04:51.994Z,18.10
2023-04-21T00:07:20.433Z,16.60
2023-04-21T00:09:48.309Z,16.10
2023-04-21T00:12:16.099Z,16.80
2023-04-21T00:14:43.839Z,16.30
2023-04-21T00:17:11.620Z,16.60
2023-04-21T00:19:39.442Z,16.50
2023-04-21T00:22:12.097Z,15.80
2023-04-21T00:27:07.586Z,15.50
2023-04-21T00:29:35.436Z,16.40
2023-04-21T00:32:03.955Z,16.50
2023-04-21T00:34:31.853Z,16.80
2023-04-21T00:36:59.614Z,15.10
2023-04-21T00:39:27.372Z,15.90
2023-04-21T00:41:55.377Z,15.80
2023-04-21T00:44:23.254Z,16.10
2023-04-21T00:46:51.210Z,16.40
2023-04-21T00:49:19.197Z,15.10
2023-04-21T00:51:47.220Z,15.60
2023-04-21T00:54:15.151Z,15.80
2023-04-21T00:56:42.992Z,15.10
2023-04-21T00:59:10.959Z,16.30
2023-04-21T01:01:40.115Z,16.00
2023-04-21T01:04:10.286Z,16.40
2023-04-21T01:06:38.349Z,15.60
2023-04-21T01:09:06.447Z,16.30
2023-04-21T01:11:34.573Z,16.00
2023-04-21T01:14:02.489Z,15.80
2023-04-21T01:16:32.642Z,16.00
2023-04-21T01:19:01.838Z,17.50
2023-04-21T01:21:37.204Z,15.90
2023-04-21T01:24:05.315Z,14.60
2023-04-21T01:26:33.196Z,16.20
2023-04-21T01:29:00.992Z,16.40
2023-04-21T01:31:28.922Z,16.70
2023-04-21T01:33:56.854Z,17.00
2023-04-21T01:36:24.682Z,16.20
2023-04-21T01:38:52.775Z,16.40
2023-04-21T01:41:20.972Z,16.70
2023-04-21T01:43:48.951Z,15.50
2023-04-21T01:46:21.080Z,16.30
2023-04-21T01:48:49.316Z,16.60
2023-04-21T01:51:17.099Z,16.30
2023-04-21T01:53:45.000Z,16.50
2023-04-21T01:56:15.978Z,17.20
2023-04-21T01:58:43.863Z,17.40
2023-04-21T02:01:11.707Z,15.80
2023-04-21T02:03:40.668Z,16.80
2023-04-21T02:06:08.578Z,16.00
2023-04-21T02:08:36.349Z,18.00
2023-04-21T02:11:04.240Z,17.40
2023-04-21T02:13:31.952Z,17.20
2023-04-21T02:16:12.074Z,17.30
2023-04-21T02:18:41.495Z,17.00
2023-04-21T02:21:09.257Z,16.50
2023-04-21T02:23:37.076Z,16.30
2023-04-21T02:26:05.200Z,17.60
2023-04-21T02:28:32.954Z,16.90
2023-04-21T02:31:00.742Z,16.90
2023-04-21T02:33:28.571Z,18.50
2023-04-21T02:35:56.398Z,17.60
2023-04-21T02:38:24.316Z,16.50
2023-04-21T02:40:52.137Z,17.30
2023-04-21T02:43:20.351Z,17.60
2023-04-21T02:45:48.096Z,16.90
2023-04-21T02:48:16.041Z,17.40
2023-04-21T02:50:43.828Z,16.80
2023-04-21T02:53:11.663Z,17.00
2023-04-21T02:55:39.455Z,17.80
2023-04-21T02:58:07.314Z,17.90
2023-04-21T03:00:35.188Z,17.00
2023-04-21T03:03:03.691Z,19.00
2023-04-21T03:05:31.654Z,17.80
2023-04-21T03:07:59.468Z,20.00
2023-04-21T03:10:27.302Z,18.10
2023-04-21T03:12:56.285Z,17.70
2023-04-21T03:15:24.106Z,20.00
2023-04-21T03:17:51.871Z,18.80
2023-04-21T03:20:19.965Z,20.30
2023-04-21T03:22:47.864Z,22.40
2023-04-21T03:25:16.149Z,21.20
2023-04-21T03:27:43.915Z,19.20
2023-04-21T03:30:12.378Z,18.70
2023-04-21T03:32:40.152Z,20.20
2023-04-21T03:35:08.148Z,19.90
2023-04-21T03:37:35.969Z,20.20
2023-04-21T03:40:08.622Z,19.10
2023-04-21T03:42:37.069Z,19.40
2023-04-21T03:45:06.995Z,18.30
2023-04-21T03:47:35.881Z,17.00
2023-04-21T03:50:05.966Z,16.90
2023-04-21T03:52:33.820Z,17.80
2023-04-21T03:55:01.647Z,17.50
2023-04-21T03:57:29.826Z,17.40
2023-04-21T03:59:57.725Z,18.40
2023-04-21T04:02:25.803Z,17.80
2023-04-21T04:04:53.870Z,17.00
2023-04-21T04:07:21.806Z,17.40
2023-04-21T04:09:49.713Z,19.40
2023-04-21T04:12:17.453Z,19.00
2023-04-21T04:14:45.192Z,18.20
2023-04-21T04:17:13.220Z,19.90
2023-04-21T04:19:41.072Z,19.90
2023-04-21T04:22:08.883Z,18.70
2023-04-21T04:24:36.921Z,17.90
2023-04-21T04:27:05.702Z,18.10
2023-04-21T04:29:33.511Z,18.70
2023-04-21T04:32:04.133Z,18.80
2023-04-21T04:34:32.679Z,18.40
2023-04-21T04:37:02.546Z,17.70
2023-04-21T04:39:32.207Z,17.90
2023-04-21T04:42:01.320Z,17.40
2023-04-21T04:44:29.887Z,18.00
2023-04-21T04:46:57.703Z,17.10
2023-04-21T04:49:25.979Z,17.60
2023-04-21T04:51:53.787Z,18.90
2023-04-21T04:54:21.724Z,17.80
2023-04-21T04:56:49.743Z,16.90
2023-04-21T04:59:17.488Z,17.90
2023-04-21T05:01:45.253Z,15.70
2023-04-21T05:04:16.634Z,17.50
2023-04-21T05:06:44.834Z,17.10
2023-04-21T05:09:12.690Z,17.70
2023-04-21T05:11:40.890Z,17.00
2023-04-21T05:14:08.692Z,18.40
2023-04-21T05:16:36.597Z,17.30
2023-04-21T05:19:04.554Z,17.80
2023-04-21T05:21:33.454Z,16.00
2023-04-21T05:24:01.230Z,16.80
2023-04-21T05:26:29.932Z,16.50
2023-04-21T05:28:58.792Z,16.50
2023-04-21T05:31:26.732Z,18.20
2023-04-21T05:33:54.618Z,17.20
2023-04-21T05:36:24.900Z,17.50
2023-04-21T05:38:52.908Z,16.10
2023-04-21T05:41:22.601Z,16.50
2023-04-21T05:43:50.538Z,17.10
2023-04-21T05:46:18.665Z,17.90
2023-04-21T05:48:46.676Z,18.80
2023-04-21T05:51:15.666Z,18.40
2023-04-21T05:53:45.167Z,17.10
2023-04-21T05:56:14.245Z,18.00
2023-04-21T05:58:42.292Z,17.40
2023-04-21T06:01:10.388Z,16.20
2023-04-21T06:03:38.325Z,14.60
2023-04-21T06:06:07.087Z,15.30
2023-04-21T06:08:35.498Z,15.70
2023-04-21T06:11:03.482Z,15.00
2023-04-21T06:13:31.378Z,15.50
2023-04-21T06:15:59.311Z,16.50
2023-04-21T06:18:27.718Z,16.70
2023-04-21T06:20:56.109Z,18.70
2023-04-21T06:23:23.996Z,17.30
2023-04-21T06:26:06.798Z,16.30
2023-04-21T06:28:36.066Z,15.10
2023-04-21T06:31:06.940Z,19.20
2023-04-21T06:33:36.930Z,20.00
2023-04-21T06:36:05.501Z,16.50
2023-04-21T06:38:33.309Z,13.50
2023-04-21T06:41:01.251Z,12.30
2023-04-21T06:43:28.998Z,11.90
2023-04-21T06:45:56.776Z,11.80
2023-04-21T06:48:24.649Z,11.60
2023-04-21T06:50:52.681Z,10.20
2023-04-21T06:53:21.836Z,11.20
2023-04-21T06:55:50.658Z,11.20
2023-04-21T06:58:20.653Z,9.60
2023-04-21T07:00:49.496Z,9.20
2023-04-21T07:03:17.532Z,9.60
2023-04-21T07:05:46.009Z,9.40
2023-04-21T07:08:13.883Z,8.60
2023-04-21T07:10:41.666Z,8.70
2023-04-21T07:13:10.108Z,8.90
2023-04-21T07:15:38.215Z,9.00
2023-04-21T07:18:06.725Z,8.00
2023-04-21T07:20:34.569Z,8.20
2023-04-21T07:23:02.444Z,8.00
2023-04-21T07:25:30.397Z,7.70
2023-04-21T07:27:58.353Z,7.80
2023-04-21T07:30:26.465Z,7.90
2023-04-21T07:32:54.394Z,8.90
2023-04-21T07:35:22.243Z,9.00
2023-04-21T07:37:50.321Z,8.00
2023-04-21T07:40:18.451Z,8.40
2023-04-21T07:42:46.430Z,8.40
2023-04-21T07:45:14.186Z,8.00
2023-04-21T07:47:42.101Z,7.60
2023-04-21T07:50:10.584Z,7.80
2023-04-21T07:52:38.516Z,7.40
2023-04-21T07:55:07.001Z,7.80
2023-04-21T07:57:38.416Z,8.20
2023-04-21T08:00:07.831Z,7.30
2023-04-21T08:02:35.661Z,8.30
2023-04-21T08:05:03.820Z,8.20
2023-04-21T08:07:31.917Z,8.20
2023-04-21T08:10:00.409Z,7.40
2023-04-21T08:12:28.339Z,8.00
2023-04-21T08:14:56.168Z,7.40
2023-04-21T08:17:24.129Z,8.60
2023-04-21T08:19:52.256Z,7.70
2023-04-21T08:22:20.640Z,8.00
2023-04-21T08:24:48.580Z,7.50
2023-04-21T08:27:16.559Z,7.50
2023-04-21T08:29:44.546Z,8.00
2023-04-21T08:32:12.456Z,7.70
2023-04-21T08:34:40.379Z,7.20
2023-04-21T08:37:08.423Z,7.30
2023-04-21T08:39:36.516Z,7.60
2023-04-21T08:42:04.371Z,7.80
2023-04-21T08:44:32.430Z,7.60
2023-04-21T08:47:01.615Z,7.30
2023-04-21T08:49:31.750Z,7.80
2023-04-21T08:52:01.009Z,7.50
2023-04-21T08:54:29.968Z,8.00
2023-04-21T08:57:08.044Z,7.50
2023-04-21T08:59:39.918Z,7.20
2023-04-21T09:02:16.369Z,7.20
2023-04-21T09:04:49.427Z,7.40
2023-04-21T09:07:39.313Z,7.00
2023-04-21T09:10:08.284Z,7.00
2023-04-21T09:12:39.736Z,6.90
2023-04-21T09:15:11.220Z,7.40
2023-04-21T09:17:39.317Z,6.70
2023-04-21T09:20:17.235Z,6.40
2023-04-21T09:22:45.426Z,6.70
2023-04-21T09:25:17.837Z,6.20
2023-04-21T09:27:46.955Z,6.40
2023-04-21T09:30:19.783Z,6.60
2023-04-21T09:32:47.733Z,6.70
2023-04-21T09:35:15.643Z,5.90
2023-04-21T09:40:26.684Z,5.80
2023-04-21T09:42:54.514Z,6.00
2023-04-21T09:45:39.094Z,6.40
2023-04-21T09:48:09.834Z,6.40
2023-04-21T09:53:14.505Z,5.50
2023-04-21T09:55:42.554Z,6.20
2023-04-21T09:58:11.819Z,6.00
2023-04-21T10:00:41.031Z,5.60
2023-04-21T10:03:12.164Z,5.60
2023-04-21T10:05:43.014Z,5.60
2023-04-21T10:08:12.373Z,5.40
2023-04-21T10:10:40.317Z,5.10
2023-04-21T10:13:14.905Z,5.50
2023-04-21T10:15:42.810Z,6.10
2023-04-21T10:18:23.825Z,5.80
2023-04-21T10:21:11.381Z,4.80
2023-04-21T10:23:40.110Z,6.30
2023-04-21T10:26:22.433Z,5.30
2023-04-21T10:31:35.764Z,5.70
2023-04-21T10:34:07.368Z,5.50
2023-04-21T10:36:43.753Z,6.20
2023-04-21T10:39:13.235Z,5.30
2023-04-21T10:41:46.444Z,5.20
2023-04-21T10:44:14.505Z,6.50
2023-04-21T10:47:00.481Z,4.90
2023-04-21T10:49:30.669Z,4.60
2023-04-21T10:52:02.794Z,4.60
2023-04-21T10:57:11.675Z,5.30
2023-04-21T10:59:39.895Z,5.00
2023-04-21T11:02:11.646Z,4.90
2023-04-21T11:04:45.077Z,4.30
2023-04-21T11:07:31.501Z,4.40
2023-04-21T11:10:04.435Z,5.00
2023-04-21T11:12:35.224Z,4.90
2023-04-21T11:15:09.164Z,4.90
2023-04-21T11:17:43.405Z,4.80
2023-04-21T11:20:11.581Z,4.50
2023-04-21T11:22:39.342Z,5.20
2023-04-21T11:25:17.294Z,5.20
2023-04-21T11:27:55.295Z,5.00
2023-04-21T11:30:35.098Z,4.70
2023-04-21T11:33:03.837Z,4.40
2023-04-21T11:35:32.225Z,4.60
2023-04-21T11:38:05.888Z,4.90
2023-04-21T11:40:48.984Z,4.70
2023-04-21T11:43:17.256Z,5.10
2023-04-21T11:45:50.463Z,4.50
2023-04-21T11:48:19.697Z,4.40
2023-04-21T11:50:49.590Z,4.50
2023-04-21T11:53:17.432Z,4.70
2023-04-21T11:55:48.393Z,5.20
2023-04-21T11:58:17.887Z,4.50
2023-04-21T12:00:46.521Z,4.90
2023-04-21T12:03:14.659Z,4.30
2023-04-21T12:05:42.687Z,4.80
2023-04-21T12:08:16.162Z,4.90
2023-04-21T12:10:48.999Z,5.30
2023-04-21T12:13:23.881Z,4.70
2023-04-21T12:15:51.745Z,4.60
2023-04-21T12:18:19.586Z,4.70
2023-04-21T12:20:52.157Z,5.00
2023-04-21T12:23:20.195Z,4.40
2023-04-21T12:25:48.029Z,4.50
2023-04-21T12:28:17.633Z,4.50
2023-04-21T12:30:45.544Z,4.30
2023-04-21T12:33:13.478Z,4.70
2023-04-21T12:35:41.341Z,4.40
2023-04-21T12:38:10.044Z,4.40
2023-04-21T12:40:38.242Z,5.10
2023-04-21T12:43:06.244Z,4.90
2023-04-21T12:45:34.122Z,4.10
2023-04-21T12:48:03.621Z,4.30
2023-04-21T12:50:31.518Z,4.10
2023-04-21T12:52:59.759Z,4.20
2023-04-21T12:55:27.703Z,4.10
2023-04-21T12:57:55.655Z,4.40
2023-04-21T13:00:23.473Z,3.90
2023-04-21T13:02:51.331Z,4.20
2023-04-21T13:05:19.473Z,4.00
2023-04-21T13:07:47.323Z,4.00
2023-04-21T13:10:15.167Z,4.00
2023-04-21T13:12:43.072Z,3.80
2023-04-21T13:15:11.645Z,4.10
2023-04-21T13:17:39.471Z,3.90
2023-04-21T13:20:08.032Z,3.50
2023-04-21T13:22:35.879Z,3.80
2023-04-21T13:25:04.641Z,4.40
2023-04-21T13:27:33.688Z,3.70
2023-04-21T13:30:01.651Z,3.50
2023-04-21T13:32:29.545Z,3.80
2023-04-21T13:34:58.229Z,3.30
2023-04-21T13:37:26.136Z,3.90
2023-04-21T13:39:54.024Z,3.60
2023-04-21T13:42:22.049Z,3.50
2023-04-21T13:44:50.065Z,4.20
2023-04-21T13:47:17.843Z,4.10
2023-04-21T13:49:46.162Z,4.30
2023-04-21T13:52:13.973Z,3.60
2023-04-21T13:54:42.396Z,3.90
2023-04-21T13:57:10.717Z,3.80
2023-04-21T13:59:38.898Z,3.90
2023-04-21T14:02:07.115Z,4.30
2023-04-21T14:04:35.468Z,3.80
2023-04-21T14:07:04.358Z,3.70
2023-04-21T14:09:32.347Z,4.10
2023-04-21T14:12:01.630Z,3.60
2023-04-21T14:14:38.906Z,3.90
2023-04-21T14:17:07.967Z,3.40
2023-04-21T14:19:36.839Z,4.00
2023-04-21T14:22:05.166Z,3.60
2023-04-21T14:24:33.035Z,6.40
2023-04-21T14:27:01.219Z,4.60
2023-04-21T14:29:29.073Z,5.00
2023-04-21T14:31:58.752Z,3.90
2023-04-21T14:34:27.331Z,5.30
2023-04-21T14:36:56.499Z,4.50
2023-04-21T14:39:24.576Z,4.60
2023-04-21T14:41:52.512Z,5.00
2023-04-21T14:44:20.481Z,4.20
2023-04-21T14:47:00.868Z,4.20
2023-04-21T14:49:37.483Z,4.70
2023-04-21T14:52:05.697Z,4.40
2023-04-21T14:54:33.628Z,3.80
2023-04-21T14:57:17.694Z,3.80
2023-04-21T14:59:51.606Z,4.40
2023-04-21T15:04:49.946Z,4.50
2023-04-21T15:07:23.300Z,4.00
2023-04-21T15:09:52.297Z,4.30
2023-04-21T15:12:20.322Z,4.00
2023-04-21T15:14:48.229Z,4.30
2023-04-21T15:17:16.129Z,4.40
2023-04-21T15:19:44.119Z,3.90
2023-04-21T15:22:12.583Z,4.10
2023-04-21T15:24:40.945Z,4.70
2023-04-21T15:27:08.807Z,5.00
2023-04-21T15:29:37.146Z,4.10
2023-04-21T15:32:05.338Z,4.30
2023-04-21T15:34:33.331Z,4.40
2023-04-21T15:37:01.378Z,4.50
2023-04-21T15:39:29.204Z,4.70
2023-04-21T15:41:57.389Z,4.60
2023-04-21T15:44:25.473Z,5.10
2023-04-21T15:46:53.365Z,4.10
2023-04-21T15:49:22.634Z,4.20
2023-04-21T15:51:52.233Z,4.20
2023-04-21T15:54:20.385Z,4.40
2023-04-21T15:56:48.491Z,3.70
2023-04-21T15:59:16.788Z,3.70
2023-04-21T16:01:44.787Z,4.90
2023-04-21T16:04:13.338Z,3.90
2023-04-21T16:06:41.683Z,3.30
2023-04-21T16:09:11.001Z,4.30
2023-04-21T16:11:39.163Z,4.70
2023-04-21T16:14:12.110Z,4.20
2023-04-21T16:16:46.379Z,4.00
2023-04-21T16:19:14.481Z,4.90
2023-04-21T16:21:42.960Z,4.80
2023-04-21T16:24:12.252Z,5.30
2023-04-21T16:26:40.675Z,5.00
2023-04-21T16:29:08.555Z,5.00
2023-04-21T16:31:36.517Z,5.20
2023-04-21T16:34:04.418Z,4.70
2023-04-21T16:36:33.045Z,4.70
2023-04-21T16:39:00.946Z,4.20
2023-04-21T16:41:30.675Z,4.40
2023-04-21T16:43:58.849Z,4.40
2023-04-21T16:46:26.867Z,5.10
2023-04-21T16:48:54.910Z,5.10
2023-04-21T16:51:22.903Z,4.70
2023-04-21T16:53:50.972Z,4.70
2023-04-21T16:56:20.406Z,3.90
2023-04-21T16:58:48.197Z,3.80
2023-04-21T17:01:16.075Z,5.50
2023-04-21T17:03:44.256Z,5.60
2023-04-21T17:06:17.227Z,5.30
2023-04-21T17:08:53.824Z,5.50
2023-04-21T17:11:21.745Z,5.90
2023-04-21T17:13:49.619Z,4.30
2023-04-21T17:16:17.650Z,4.70
2023-04-21T17:18:45.436Z,5.40
2023-04-21T17:21:13.293Z,7.40
2023-04-21T17:23:41.268Z,8.50
2023-04-21T17:26:11.604Z,12.70
2023-04-21T17:28:41.123Z,9.60
2023-04-21T17:31:15.672Z,5.30
2023-04-21T17:33:45.242Z,5.40
2023-04-21T17:36:13.352Z,6.40
2023-04-21T17:38:42.880Z,4.90
2023-04-21T17:41:10.935Z,5.90
2023-04-21T17:43:38.902Z,5.30
2023-04-21T17:46:07.669Z,4.90
2023-04-21T17:48:36.157Z,5.20
2023-04-21T17:51:04.234Z,7.10
2023-04-21T17:53:32.123Z,8.00
2023-04-21T17:55:59.966Z,6.80
2023-04-21T17:58:28.700Z,6.30
2023-04-21T18:00:57.088Z,8.60
2023-04-21T18:03:25.315Z,13.00
2023-04-21T18:05:54.321Z,18.10
2023-04-21T18:08:22.189Z,23.20
2023-04-21T18:10:49.955Z,32.70
2023-04-21T18:13:17.766Z,40.60
2023-04-21T18:15:45.828Z,37.70
2023-04-21T18:18:13.832Z,36.90
2023-04-21T18:20:41.925Z,41.30
2023-04-21T18:23:10.332Z,45.90
2023-04-21T18:25:42.205Z,42.30
2023-04-21T18:28:14.536Z,36.20
2023-04-21T18:30:42.958Z,40.90
2023-04-21T18:33:11.766Z,21.20
2023-04-21T18:35:41.955Z,16.30
2023-04-21T18:38:13.577Z,16.70
2023-04-21T18:40:41.751Z,23.20
2023-04-21T18:43:10.633Z,25.80
2023-04-21T18:45:38.993Z,24.00
2023-04-21T18:48:08.203Z,21.60
2023-04-21T18:50:39.917Z,21.90
2023-04-21T18:53:08.820Z,23.90
2023-04-21T18:55:37.437Z,26.50
2023-04-21T18:58:05.510Z,32.40
2023-04-21T19:00:37.552Z,31.00
2023-04-21T19:03:06.637Z,27.20
2023-04-21T19:05:36.816Z,26.10
2023-04-21T19:08:04.774Z,26.50
2023-04-21T19:10:34.639Z,26.70
2023-04-21T19:13:02.452Z,26.80
2023-04-21T19:15:30.327Z,30.20
2023-04-21T19:17:58.258Z,30.50
2023-04-21T19:20:26.106Z,31.30
2023-04-21T19:22:53.936Z,33.70
2023-04-21T19:25:21.883Z,37.80
2023-04-21T19:27:49.831Z,46.00
2023-04-21T19:30:17.812Z,71.80
2023-04-21T19:32:45.777Z,87.80
2023-04-21T19:35:13.713Z,107.40
2023-04-21T19:37:41.533Z,69.20
2023-04-21T19:40:10.013Z,50.80
2023-04-21T19:42:40.896Z,45.10
2023-04-21T19:45:10.544Z,44.50
2023-04-21T19:47:38.444Z,44.10
2023-04-21T19:50:08.254Z,43.20
2023-04-21T19:52:40.373Z,41.30
2023-04-21T19:55:08.992Z,43.90
2023-04-21T19:57:37.029Z,41.30
2023-04-21T20:00:09.347Z,37.10
2023-04-21T20:02:37.570Z,40.40
2023-04-21T20:05:07.632Z,43.20
2023-04-21T20:07:36.650Z,39.50
2023-04-21T20:10:07.008Z,35.90
2023-04-21T20:12:35.456Z,30.30
2023-04-21T20:15:03.885Z,28.40
2023-04-21T20:17:32.532Z,30.40
2023-04-21T20:20:00.477Z,37.90
2023-04-21T20:22:28.256Z,44.70
2023-04-21T20:24:58.091Z,44.50
2023-04-21T20:27:26.197Z,44.40
2023-04-21T20:29:54.136Z,38.50
2023-04-21T20:32:21.998Z,35.20
2023-04-21T20:34:49.826Z,37.80
2023-04-21T20:37:17.838Z,33.50
2023-04-21T20:39:46.900Z,35.60
2023-04-21T20:42:19.971Z,37.10
2023-04-21T20:44:48.235Z,38.10
2023-04-21T20:47:17.563Z,36.70
2023-04-21T20:49:47.208Z,36.80
2023-04-21T20:52:15.125Z,47.50
2023-04-21T20:54:43.060Z,41.90
2023-04-21T20:57:12.122Z,38.10
2023-04-21T20:59:40.544Z,36.60
2023-04-21T21:02:09.446Z,38.80
2023-04-21T21:04:37.626Z,43.70
2023-04-21T21:07:05.570Z,48.70
2023-04-21T21:09:33.580Z,50.70
2023-04-21T21:12:02.407Z,43.70
2023-04-21T21:14:30.283Z,33.20
2023-04-21T21:16:58.176Z,26.40
2023-04-21T21:19:26.077Z,23.70
2023-04-21T21:21:54.291Z,22.10
2023-04-21T21:24:22.070Z,22.80
2023-04-21T21:26:50.803Z,22.90
2023-04-21T21:29:18.598Z,21.80
2023-04-21T21:31:46.600Z,20.70
2023-04-21T21:34:14.488Z,23.40
2023-04-21T21:36:42.304Z,21.70
2023-04-21T21:39:11.306Z,22.00
2023-04-21T21:41:39.779Z,23.80
2023-04-21T21:44:07.938Z,26.40
2023-04-21T21:46:36.432Z,25.20
2023-04-21T21:49:04.330Z,24.30
2023-04-21T21:51:32.483Z,22.70
2023-04-21T21:54:00.387Z,20.80
2023-04-21T21:56:28.185Z,19.90
2023-04-21T21:58:56.271Z,20.80
2023-04-21T22:01:24.190Z,22.70
2023-04-21T22:03:53.889Z,23.90
2023-04-21T22:06:26.785Z,22.90
2023-04-21T22:08:55.109Z,23.10
2023-04-21T22:11:23.063Z,22.60
2023-04-21T22:13:51.455Z,22.70
2023-04-21T22:16:19.389Z,22.70
2023-04-21T22:18:48.293Z,21.10
2023-04-21T22:21:16.252Z,20.30
2023-04-21T22:23:44.384Z,21.50
2023-04-21T22:26:12.171Z,20.40
2023-04-21T22:28:41.800Z,20.10
2023-04-21T22:31:10.489Z,20.80
2023-04-21T22:33:38.566Z,19.90
2023-04-21T22:36:08.541Z,18.70
2023-04-21T22:38:38.492Z,18.50
2023-04-21T22:41:06.749Z,18.40
2023-04-21T22:43:34.644Z,18.80
2023-04-21T22:46:02.802Z,19.00
2023-04-21T22:48:32.817Z,18.70
2023-04-21T22:51:01.656Z,18.90
2023-04-21T22:53:29.778Z,21.30
2023-04-21T22:55:57.724Z,19.50
2023-04-21T22:58:26.295Z,17.40
2023-04-21T23:00:54.337Z,19.20
2023-04-21T23:03:23.191Z,19.10
2023-04-21T23:05:51.339Z,19.40
2023-04-21T23:08:19.293Z,19.30
2023-04-21T23:10:47.730Z,19.30
2023-04-21T23:13:15.637Z,19.80
2023-04-21T23:15:43.432Z,18.40
2023-04-21T23:18:11.388Z,18.30
2023-04-21T23:20:39.258Z,16.70
2023-04-21T23:23:07.206Z,18.60
2023-04-21T23:25:35.022Z,18.30
2023-04-21T23:28:02.883Z,16.90
2023-04-21T23:30:30.846Z,17.70
2023-04-21T23:32:58.957Z,16.80
2023-04-21T23:35:27.064Z,17.80
2023-04-21T23:37:54.976Z,18.20
2023-04-21T23:40:22.945Z,18.40
2023-04-21T23:42:51.025Z,18.30
2023-04-21T23:45:18.811Z,17.30
2023-04-21T23:47:46.678Z,17.10
2023-04-21T23:50:14.591Z,17.30
2023-04-21T23:52:43.206Z,17.00
2023-04-21T23:55:13.802Z,16.20
2023-04-21T23:57:44.525Z,15.50
